sensor_id;sensor_type;location;lat;lon;timestamp;pressure;altitude;pressure_sealevel;temperature;humidity
51359;BME280;37448;51.588;7.248;2022-11-20T00:00:23;100653.34;;;-4.58;83.75
51359;BME280;37448;51.588;7.248;2022-11-20T00:01:24;100652.59;;;-4.55;84.04
51359;BME280;37448;51.588;7.248;2022-11-20T00:02:25;100646.56;;;-4.57;83.76
51359;BME280;37448;51.588;7.248;2022-11-20T00:03:26;100649.13;;;-4.57;84.01
51359;BME280;37448;51.588;7.248;2022-11-20T00:04:26;100646.50;;;-4.59;83.94
51359;BME280;37448;51.588;7.248;2022-11-20T00:05:26;100652.47;;;-4.58;83.62
51359;BME280;37448;51.588;7.248;2022-11-20T00:06:27;100649.13;;;-4.57;84.03
51359;BME280;37448;51.588;7.248;2022-11-20T00:07:28;100651.59;;;-4.59;83.91
51359;BME280;37448;51.588;7.248;2022-11-20T00:08:28;100644.75;;;-4.60;83.88
51359;BME280;37448;51.588;7.248;2022-11-20T00:09:28;100645.63;;;-4.59;83.75
51359;BME280;37448;51.588;7.248;2022-11-20T00:10:29;100645.63;;;-4.59;83.55
51359;BME280;37448;51.588;7.248;2022-11-20T00:11:30;100647.31;;;-4.60;83.55
51359;BME280;37448;51.588;7.248;2022-11-20T00:12:31;100650.72;;;-4.59;83.76
51359;BME280;37448;51.588;7.248;2022-11-20T00:13:32;100651.59;;;-4.59;83.50
51359;BME280;37448;51.588;7.248;2022-11-20T00:14:32;100647.38;;;-4.58;83.58
51359;BME280;37448;51.588;7.248;2022-11-20T00:15:33;100646.56;;;-4.57;83.70
51359;BME280;37448;51.588;7.248;2022-11-20T00:16:33;100651.66;;;-4.57;83.77
51359;BME280;37448;51.588;7.248;2022-11-20T00:17:34;100643.22;;;-4.56;84.31
51359;BME280;37448;51.588;7.248;2022-11-20T00:18:35;100652.72;;;-4.52;84.01
51359;BME280;37448;51.588;7.248;2022-11-20T00:19:36;100647.50;;;-4.55;83.93
51359;BME280;37448;51.588;7.248;2022-11-20T00:20:36;100649.22;;;-4.54;84.17
51359;BME280;37448;51.588;7.248;2022-11-20T00:21:36;100648.50;;;-4.52;84.04
51359;BME280;37448;51.588;7.248;2022-11-20T00:22:37;100644.91;;;-4.57;83.66
51359;BME280;37448;51.588;7.248;2022-11-20T00:23:37;100649.13;;;-4.57;83.86
51359;BME280;37448;51.588;7.248;2022-11-20T00:24:37;100640.84;;;-4.52;83.99
51359;BME280;37448;51.588;7.248;2022-11-20T00:25:37;100645.28;;;-4.69;82.68
51359;BME280;37448;51.588;7.248;2022-11-20T00:26:38;100644.72;;;-4.62;83.68
51359;BME280;37448;51.588;7.248;2022-11-20T00:27:38;100647.38;;;-4.58;84.04
51359;BME280;37448;51.588;7.248;2022-11-20T00:28:39;100647.63;;;-4.52;83.76
51359;BME280;37448;51.588;7.248;2022-11-20T00:29:39;100647.69;;;-4.51;84.15
51359;BME280;37448;51.588;7.248;2022-11-20T00:30:39;100646.81;;;-4.51;84.59
51359;BME280;37448;51.588;7.248;2022-11-20T00:31:39;100645.13;;;-4.51;84.45
51359;BME280;37448;51.588;7.248;2022-11-20T00:32:40;100640.09;;;-4.49;84.20
51359;BME280;37448;51.588;7.248;2022-11-20T00:33:40;100640.91;;;-4.50;84.25
51359;BME280;37448;51.588;7.248;2022-11-20T00:34:41;100640.91;;;-4.50;84.79
51359;BME280;37448;51.588;7.248;2022-11-20T00:35:41;100642.63;;;-4.49;84.54
51359;BME280;37448;51.588;7.248;2022-11-20T00:36:41;100643.56;;;-4.47;84.37
51359;BME280;37448;51.588;7.248;2022-11-20T00:37:42;100644.38;;;-4.48;84.20
51359;BME280;37448;51.588;7.248;2022-11-20T00:38:43;100639.91;;;-4.54;84.07
51359;BME280;37448;51.588;7.248;2022-11-20T00:39:43;100639.97;;;-4.52;83.95
51359;BME280;37448;51.588;7.248;2022-11-20T00:40:44;100641.69;;;-4.51;84.32
51359;BME280;37448;51.588;7.248;2022-11-20T00:41:44;100644.22;;;-4.53;83.87
51359;BME280;37448;51.588;7.248;2022-11-20T00:42:44;100636.56;;;-4.53;83.95
51359;BME280;37448;51.588;7.248;2022-11-20T00:43:45;100644.13;;;-4.54;84.30
51359;BME280;37448;51.588;7.248;2022-11-20T00:44:45;100645.06;;;-4.52;83.77
51359;BME280;37448;51.588;7.248;2022-11-20T00:45:45;100640.78;;;-4.53;83.93
51359;BME280;37448;51.588;7.248;2022-11-20T00:46:46;100640.41;;;-4.84;82.48
51359;BME280;37448;51.588;7.248;2022-11-20T00:47:46;100643.47;;;-4.71;84.01
51359;BME280;37448;51.588;7.248;2022-11-20T00:48:47;100640.31;;;-4.66;83.93
51359;BME280;37448;51.588;7.248;2022-11-20T00:49:47;100642.03;;;-4.65;83.95
51359;BME280;37448;51.588;7.248;2022-11-20T00:50:47;100640.34;;;-4.64;83.92
51359;BME280;37448;51.588;7.248;2022-11-20T00:51:48;100645.13;;;-4.72;83.33
51359;BME280;37448;51.588;7.248;2022-11-20T00:52:48;100641.91;;;-4.68;83.76
51359;BME280;37448;51.588;7.248;2022-11-20T00:53:48;100641.28;;;-4.83;83.24
51359;BME280;37448;51.588;7.248;2022-11-20T00:54:49;100653.94;;;-4.85;83.59
51359;BME280;37448;51.588;7.248;2022-11-20T00:55:56;100644.44;;;-4.89;83.30
51359;BME280;37448;51.588;7.248;2022-11-20T00:56:57;100643.63;;;-4.88;83.64
51359;BME280;37448;51.588;7.248;2022-11-20T00:57:57;100644.75;;;-4.81;83.96
51359;BME280;37448;51.588;7.248;2022-11-20T00:58:59;100643.03;;;-4.82;83.51
51359;BME280;37448;51.588;7.248;2022-11-20T00:59:59;100640.34;;;-4.85;83.81
51359;BME280;37448;51.588;7.248;2022-11-20T01:02:14;100637.03;;;-4.83;84.20
51359;BME280;37448;51.588;7.248;2022-11-20T01:03:17;100641.28;;;-4.83;84.64
51359;BME280;37448;51.588;7.248;2022-11-20T01:04:18;100638.81;;;-4.82;84.00
51359;BME280;37448;51.588;7.248;2022-11-20T01:05:18;100643.03;;;-4.82;83.69
51359;BME280;37448;51.588;7.248;2022-11-20T01:06:20;100638.03;;;-4.79;83.90
51359;BME280;37448;51.588;7.248;2022-11-20T01:07:21;100639.66;;;-4.81;83.64
51359;BME280;37448;51.588;7.248;2022-11-20T01:08:21;100647.31;;;-4.81;83.86
51359;BME280;37448;51.588;7.248;2022-11-20T01:09:21;100634.56;;;-4.81;83.61
51359;BME280;37448;51.588;7.248;2022-11-20T01:10:22;100634.56;;;-4.81;84.11
51359;BME280;37448;51.588;7.248;2022-11-20T01:11:24;100639.78;;;-4.78;83.93
51359;BME280;37448;51.588;7.248;2022-11-20T01:12:25;100639.66;;;-4.81;83.64
51359;BME280;37448;51.588;7.248;2022-11-20T01:13:25;100634.56;;;-4.81;83.79
51359;BME280;37448;51.588;7.248;2022-11-20T01:14:37;100640.53;;;-4.81;83.87
51359;BME280;37448;51.588;7.248;2022-11-20T01:15:38;100641.75;;;-4.92;83.63
51359;BME280;37448;51.588;7.248;2022-11-20T01:16:41;100637.81;;;-4.85;83.89
51359;BME280;37448;51.588;7.248;2022-11-20T01:17:41;100640.16;;;-4.90;83.56
51359;BME280;37448;51.588;7.248;2022-11-20T01:18:44;100637.41;;;-4.95;83.61
51359;BME280;37448;51.588;7.248;2022-11-20T01:19:44;100641.75;;;-4.92;83.72
51359;BME280;37448;51.588;7.248;2022-11-20T01:20:45;100641.03;;;-4.90;83.88
51359;BME280;37448;51.588;7.248;2022-11-20T01:21:50;100640.34;;;-4.85;83.71
51359;BME280;37448;51.588;7.248;2022-11-20T01:22:50;100640.34;;;-4.85;84.04
51359;BME280;37448;51.588;7.248;2022-11-20T01:23:51;100639.28;;;-4.91;83.83
51359;BME280;37448;51.588;7.248;2022-11-20T01:24:52;100642.78;;;-4.88;83.60
51359;BME280;37448;51.588;7.248;2022-11-20T01:25:52;100634.19;;;-4.91;83.59
51359;BME280;37448;51.588;7.248;2022-11-20T01:26:53;100639.28;;;-4.91;83.67
51359;BME280;37448;51.588;7.248;2022-11-20T01:27:53;100636.78;;;-4.89;83.29
51359;BME280;37448;51.588;7.248;2022-11-20T01:28:54;100637.56;;;-4.92;83.66
51359;BME280;37448;51.588;7.248;2022-11-20T01:29:55;100635.88;;;-4.91;83.78
51359;BME280;37448;51.588;7.248;2022-11-20T01:30:55;100633.31;;;-4.91;83.80
51359;BME280;37448;51.588;7.248;2022-11-20T01:31:56;100634.06;;;-4.94;83.60
51359;BME280;37448;51.588;7.248;2022-11-20T01:32:56;100627.22;;;-4.95;83.68
51359;BME280;37448;51.588;7.248;2022-11-20T01:33:58;100628.97;;;-4.94;83.87
51359;BME280;37448;51.588;7.248;2022-11-20T01:34:59;100630.72;;;-4.93;83.71
51359;BME280;37448;51.588;7.248;2022-11-20T01:36:04;100622.88;;;-4.97;83.45
51359;BME280;37448;51.588;7.248;2022-11-20T01:37:05;100623.00;;;-4.94;83.96
51359;BME280;37448;51.588;7.248;2022-11-20T01:38:05;100620.25;;;-4.99;83.84
51359;BME280;37448;51.588;7.248;2022-11-20T01:39:10;100617.78;;;-4.97;84.10
51359;BME280;37448;51.588;7.248;2022-11-20T01:40:11;100615.28;;;-4.96;83.70
51359;BME280;37448;51.588;7.248;2022-11-20T01:41:13;100617.81;;;-4.96;83.92
51359;BME280;37448;51.588;7.248;2022-11-20T01:42:34;100615.28;;;-4.96;83.82
51359;BME280;37448;51.588;7.248;2022-11-20T01:43:53;100614.44;;;-4.96;83.98
51359;BME280;37448;51.588;7.248;2022-11-20T01:44:57;100613.84;;;-5.10;83.22
51359;BME280;37448;51.588;7.248;2022-11-20T01:46:02;100604.72;;;-5.05;84.22
51359;BME280;37448;51.588;7.248;2022-11-20T01:47:06;100594.72;;;-5.00;84.10
51359;BME280;37448;51.588;7.248;2022-11-20T01:48:07;100605.19;;;-5.14;83.33
51359;BME280;37448;51.588;7.248;2022-11-20T01:49:20;100603.69;;;-5.30;83.56
51359;BME280;37448;51.588;7.248;2022-11-20T01:50:27;100596.44;;;-5.21;83.99
51359;BME280;37448;51.588;7.248;2022-11-20T01:51:33;100600.19;;;-5.12;84.50
51359;BME280;37448;51.588;7.248;2022-11-20T01:52:42;100601.03;;;-5.12;84.34
51359;BME280;37448;51.588;7.248;2022-11-20T01:53:46;100604.59;;;-5.08;84.08
51359;BME280;37448;51.588;7.248;2022-11-20T01:54:55;100601.13;;;-5.10;84.08
51359;BME280;37448;51.588;7.248;2022-11-20T01:55:58;100605.31;;;-5.11;84.37
51359;BME280;37448;51.588;7.248;2022-11-20T01:57:00;100594.41;;;-5.08;84.21
51359;BME280;37448;51.588;7.248;2022-11-20T01:58:02;100590.97;;;-5.09;84.28
51359;BME280;37448;51.588;7.248;2022-11-20T01:59:05;100596.16;;;-5.07;84.28
51359;BME280;37448;51.588;7.248;2022-11-20T02:00:10;100597.88;;;-5.06;84.36
51359;BME280;37448;51.588;7.248;2022-11-20T02:01:13;100594.53;;;-5.05;84.05
51359;BME280;37448;51.588;7.248;2022-11-20T02:02:14;100599.63;;;-5.05;84.24
51359;BME280;37448;51.588;7.248;2022-11-20T02:03:19;100593.72;;;-5.04;84.10
51359;BME280;37448;51.588;7.248;2022-11-20T02:04:20;100591.97;;;-5.05;84.18
51359;BME280;37448;51.588;7.248;2022-11-20T02:05:41;100597.06;;;-5.05;84.47
51359;BME280;37448;51.588;7.248;2022-11-20T02:06:48;100599.63;;;-5.05;84.26
51359;BME280;37448;51.588;7.248;2022-11-20T02:07:51;100597.16;;;-5.03;84.23
51359;BME280;37448;51.588;7.248;2022-11-20T02:08:53;100596.28;;;-5.04;84.54
51359;BME280;37448;51.588;7.248;2022-11-20T02:09:54;100599.69;;;-5.03;84.37
51359;BME280;37448;51.588;7.248;2022-11-20T02:10:55;100602.97;;;-5.06;84.34
51359;BME280;37448;51.588;7.248;2022-11-20T02:11:55;100598.78;;;-5.06;84.25
51359;BME280;37448;51.588;7.248;2022-11-20T02:12:57;100608.97;;;-5.06;84.37
51359;BME280;37448;51.588;7.248;2022-11-20T02:14:17;100599.63;;;-5.05;84.29
51359;BME280;37448;51.588;7.248;2022-11-20T02:15:17;100601.38;;;-5.04;84.25
51359;BME280;37448;51.588;7.248;2022-11-20T02:16:21;100608.06;;;-5.06;84.22
51359;BME280;37448;51.588;7.248;2022-11-20T02:17:24;100606.41;;;-5.06;84.49
51359;BME280;37448;51.588;7.248;2022-11-20T02:18:24;100603.78;;;-5.07;84.23
51359;BME280;37448;51.588;7.248;2022-11-20T02:19:30;100605.44;;;-5.08;84.46
51359;BME280;37448;51.588;7.248;2022-11-20T02:20:31;100602.97;;;-5.06;84.05
51359;BME280;37448;51.588;7.248;2022-11-20T02:21:40;100599.38;;;-5.11;84.19
51359;BME280;37448;51.588;7.248;2022-11-20T02:23:06;100598.69;;;-5.07;84.04
51359;BME280;37448;51.588;7.248;2022-11-20T02:24:12;100596.03;;;-5.10;83.98
51359;BME280;37448;51.588;7.248;2022-11-20T02:25:14;100594.28;;;-5.11;84.28
51359;BME280;37448;51.588;7.248;2022-11-20T02:26:15;100592.66;;;-5.09;84.19
51359;BME280;37448;51.588;7.248;2022-11-20T02:27:16;100588.44;;;-5.09;84.21
51359;BME280;37448;51.588;7.248;2022-11-20T02:28:17;100588.44;;;-5.09;84.24
51359;BME280;37448;51.588;7.248;2022-11-20T02:30:55;100583.28;;;-5.10;84.09
51359;BME280;37448;51.588;7.248;2022-11-20T02:31:57;100580.75;;;-5.10;84.06
51359;BME280;37448;51.588;7.248;2022-11-20T02:32:58;100574.84;;;-5.09;83.92
51359;BME280;37448;51.588;7.248;2022-11-20T02:33:59;100583.28;;;-5.10;84.09
51359;BME280;37448;51.588;7.248;2022-11-20T02:36:18;100577.25;;;-5.12;83.94
51359;BME280;37448;51.588;7.248;2022-11-20T02:37:19;100585.72;;;-5.13;84.11
51359;BME280;37448;51.588;7.248;2022-11-20T02:38:20;100581.47;;;-5.13;84.30
51359;BME280;37448;51.588;7.248;2022-11-20T02:39:22;100582.34;;;-5.12;84.14
51359;BME280;37448;51.588;7.248;2022-11-20T02:40:25;100586.66;;;-5.11;84.24
51359;BME280;37448;51.588;7.248;2022-11-20T02:41:36;100590.00;;;-5.12;84.27
51359;BME280;37448;51.588;7.248;2022-11-20T02:42:37;100581.47;;;-5.13;83.95
51359;BME280;37448;51.588;7.248;2022-11-20T02:43:37;100580.75;;;-5.10;84.02
51359;BME280;37448;51.588;7.248;2022-11-20T02:44:37;100569.63;;;-5.12;83.83
51359;BME280;37448;51.588;7.248;2022-11-20T02:45:38;100574.72;;;-5.12;83.83
51359;BME280;37448;51.588;7.248;2022-11-20T02:46:38;100560.25;;;-5.13;83.68
51359;BME280;37448;51.588;7.248;2022-11-20T02:47:39;100565.34;;;-5.13;84.03
51359;BME280;37448;51.588;7.248;2022-11-20T02:48:39;100568.50;;;-5.19;83.85
51359;BME280;37448;51.588;7.248;2022-11-20T02:49:39;100571.41;;;-5.31;83.43
51359;BME280;37448;51.588;7.248;2022-11-20T02:50:40;100563.84;;;-5.29;83.92
51359;BME280;37448;51.588;7.248;2022-11-20T02:51:40;100567.34;;;-5.26;84.02
51359;BME280;37448;51.588;7.248;2022-11-20T02:52:41;100558.19;;;-5.22;84.26
51359;BME280;37448;51.588;7.248;2022-11-20T02:53:41;100561.59;;;-5.22;84.21
51359;BME280;37448;51.588;7.248;2022-11-20T02:54:42;100569.22;;;-5.22;84.33
51359;BME280;37448;51.588;7.248;2022-11-20T02:55:42;100568.41;;;-5.21;84.07
51359;BME280;37448;51.588;7.248;2022-11-20T02:56:42;100577.78;;;-5.20;84.51
51359;BME280;37448;51.588;7.248;2022-11-20T02:57:43;100568.13;;;-5.28;83.77
51359;BME280;37448;51.588;7.248;2022-11-20T02:58:43;100569.09;;;-5.25;84.11
51359;BME280;37448;51.588;7.248;2022-11-20T02:59:44;100572.41;;;-5.27;83.90
51359;BME280;37448;51.588;7.248;2022-11-20T03:00:44;100573.38;;;-5.24;84.12
51359;BME280;37448;51.588;7.248;2022-11-20T03:01:45;100570.84;;;-5.24;84.02
51359;BME280;37448;51.588;7.248;2022-11-20T03:02:45;100564.88;;;-5.24;84.12
51359;BME280;37448;51.588;7.248;2022-11-20T03:03:45;100565.00;;;-5.21;83.89
51359;BME280;37448;51.588;7.248;2022-11-20T03:04:46;100567.56;;;-5.21;83.99
51359;BME280;37448;51.588;7.248;2022-11-20T03:05:46;100565.75;;;-5.24;84.06
51359;BME280;37448;51.588;7.248;2022-11-20T03:06:46;100566.69;;;-5.22;84.15
51359;BME280;37448;51.588;7.248;2022-11-20T03:07:46;100569.97;;;-5.24;83.99
51359;BME280;37448;51.588;7.248;2022-11-20T03:08:47;100573.38;;;-5.24;84.19
51359;BME280;37448;51.588;7.248;2022-11-20T03:09:47;100575.06;;;-5.24;84.11
51359;BME280;37448;51.588;7.248;2022-11-20T03:10:48;100571.66;;;-5.25;84.23
51359;BME280;37448;51.588;7.248;2022-11-20T03:11:48;100572.53;;;-5.24;83.95
51359;BME280;37448;51.588;7.248;2022-11-20T03:12:55;100565.69;;;-5.25;83.89
51359;BME280;37448;51.588;7.248;2022-11-20T03:13:55;100566.56;;;-5.25;84.10
51359;BME280;37448;51.588;7.248;2022-11-20T03:14:56;100560.59;;;-5.25;84.01
51359;BME280;37448;51.588;7.248;2022-11-20T03:15:56;100563.97;;;-5.26;84.18
51359;BME280;37448;51.588;7.248;2022-11-20T03:16:56;100567.31;;;-5.27;83.91
51359;BME280;37448;51.588;7.248;2022-11-20T03:17:57;100559.59;;;-5.29;84.01
51359;BME280;37448;51.588;7.248;2022-11-20T03:18:58;100567.31;;;-5.27;83.77
51359;BME280;37448;51.588;7.248;2022-11-20T03:19:58;100567.44;;;-5.24;84.15
51359;BME280;37448;51.588;7.248;2022-11-20T03:20:58;100564.88;;;-5.24;83.88
51359;BME280;37448;51.588;7.248;2022-11-20T03:21:59;100564.44;;;-5.35;83.81
51359;BME280;37448;51.588;7.248;2022-11-20T03:23:00;100556.00;;;-5.34;84.14
51359;BME280;37448;51.588;7.248;2022-11-20T03:24:01;100553.56;;;-5.31;84.29
51359;BME280;37448;51.588;7.248;2022-11-20T03:25:01;100561.28;;;-5.29;84.09
51359;BME280;37448;51.588;7.248;2022-11-20T03:26:09;100554.38;;;-5.32;83.95
51359;BME280;37448;51.588;7.248;2022-11-20T03:27:10;100561.22;;;-5.31;84.06
51359;BME280;37448;51.588;7.248;2022-11-20T03:28:10;100558.66;;;-5.31;84.34
51359;BME280;37448;51.588;7.248;2022-11-20T03:29:10;100561.22;;;-5.31;84.16
51359;BME280;37448;51.588;7.248;2022-11-20T03:30:11;100563.38;;;-5.40;83.86
51359;BME280;37448;51.588;7.248;2022-11-20T03:31:12;100558.94;;;-5.44;83.73
51359;BME280;37448;51.588;7.248;2022-11-20T03:32:13;100563.31;;;-5.42;84.08
51359;BME280;37448;51.588;7.248;2022-11-20T03:33:13;100558.69;;;-5.51;83.93
51359;BME280;37448;51.588;7.248;2022-11-20T03:34:14;100553.81;;;-5.46;84.21
51359;BME280;37448;51.588;7.248;2022-11-20T03:35:14;100552.13;;;-5.45;84.50
51359;BME280;37448;51.588;7.248;2022-11-20T03:36:16;100545.34;;;-5.45;84.39
51359;BME280;37448;51.588;7.248;2022-11-20T03:37:16;100554.00;;;-5.41;84.32
51359;BME280;37448;51.588;7.248;2022-11-20T03:38:17;100548.03;;;-5.42;84.59
51359;BME280;37448;51.588;7.248;2022-11-20T03:39:17;100543.81;;;-5.41;84.78
51359;BME280;37448;51.588;7.248;2022-11-20T03:40:17;100550.50;;;-5.43;84.20
51359;BME280;37448;51.588;7.248;2022-11-20T03:41:23;100552.28;;;-5.42;84.33
51359;BME280;37448;51.588;7.248;2022-11-20T03:42:23;100547.94;;;-5.43;84.28
51359;BME280;37448;51.588;7.248;2022-11-20T03:43:47;100546.38;;;-5.41;84.27
51359;BME280;37448;51.588;7.248;2022-11-20T03:44:47;100553.03;;;-5.43;84.09
51359;BME280;37448;51.588;7.248;2022-11-20T03:45:48;100551.47;;;-5.41;84.27
51359;BME280;37448;51.588;7.248;2022-11-20T03:46:48;100548.09;;;-5.40;84.28
51359;BME280;37448;51.588;7.248;2022-11-20T03:47:48;100544.69;;;-5.41;84.10
51359;BME280;37448;51.588;7.248;2022-11-20T03:48:49;100543.81;;;-5.41;84.58
51359;BME280;37448;51.588;7.248;2022-11-20T03:49:49;100536.09;;;-5.43;84.23
51359;BME280;37448;51.588;7.248;2022-11-20T03:50:51;100543.75;;;-5.43;84.24
51359;BME280;37448;51.588;7.248;2022-11-20T03:51:51;100550.50;;;-5.43;84.30
51359;BME280;37448;51.588;7.248;2022-11-20T03:52:52;100553.00;;;-5.45;84.30
51359;BME280;37448;51.588;7.248;2022-11-20T03:53:53;100553.00;;;-5.45;84.57
51359;BME280;37448;51.588;7.248;2022-11-20T03:54:53;100548.75;;;-5.44;84.29
51359;BME280;37448;51.588;7.248;2022-11-20T03:55:54;100543.66;;;-5.44;84.48
51359;BME280;37448;51.588;7.248;2022-11-20T03:56:54;100545.41;;;-5.43;84.36
51359;BME280;37448;51.588;7.248;2022-11-20T03:57:54;100542.81;;;-5.45;84.15
51359;BME280;37448;51.588;7.248;2022-11-20T03:58:55;100546.22;;;-5.44;84.00
51359;BME280;37448;51.588;7.248;2022-11-20T03:59:55;100545.41;;;-5.43;84.53
51359;BME280;37448;51.588;7.248;2022-11-20T04:00:56;100538.56;;;-5.44;84.67
51359;BME280;37448;51.588;7.248;2022-11-20T04:01:56;100543.81;;;-5.41;84.35
51359;BME280;37448;51.588;7.248;2022-11-20T04:03:01;100536.59;;;-5.52;84.06
51359;BME280;37448;51.588;7.248;2022-11-20T04:04:02;100532.44;;;-5.50;84.55
51359;BME280;37448;51.588;7.248;2022-11-20T04:05:02;100534.72;;;-5.56;84.40
51359;BME280;37448;51.588;7.248;2022-11-20T04:07:11;100534.84;;;-5.53;84.62
51359;BME280;37448;51.588;7.248;2022-11-20T04:08:11;100532.31;;;-5.53;84.56
51359;BME280;37448;51.588;7.248;2022-11-20T04:09:12;100531.50;;;-5.52;84.54
51359;BME280;37448;51.588;7.248;2022-11-20T04:10:13;100532.44;;;-5.50;84.26
51359;BME280;37448;51.588;7.248;2022-11-20T04:11:17;100532.50;;;-5.48;84.33
51359;BME280;37448;51.588;7.248;2022-11-20T04:12:18;100524.78;;;-5.50;84.08
51359;BME280;37448;51.588;7.248;2022-11-20T04:13:18;100523.94;;;-5.50;84.08
51359;BME280;37448;51.588;7.248;2022-11-20T04:14:19;100529.88;;;-5.50;84.27
51359;BME280;37448;51.588;7.248;2022-11-20T04:15:20;100521.44;;;-5.49;84.21
51359;BME280;37448;51.588;7.248;2022-11-20T04:16:21;100526.53;;;-5.49;84.34
51359;BME280;37448;51.588;7.248;2022-11-20T04:17:22;100519.69;;;-5.50;84.08
51359;BME280;37448;51.588;7.248;2022-11-20T04:18:22;100530.78;;;-5.49;84.27
51359;BME280;37448;51.588;7.248;2022-11-20T04:19:22;100525.69;;;-5.49;84.00
51359;BME280;37448;51.588;7.248;2022-11-20T04:20:23;100528.28;;;-5.48;84.03
51359;BME280;37448;51.588;7.248;2022-11-20T04:21:24;100530.00;;;-5.47;84.26
51359;BME280;37448;51.588;7.248;2022-11-20T04:22:25;100523.19;;;-5.48;84.15
51359;BME280;37448;51.588;7.248;2022-11-20T04:23:25;100532.56;;;-5.47;84.26
51359;BME280;37448;51.588;7.248;2022-11-20T04:24:26;100523.19;;;-5.48;84.15
51359;BME280;37448;51.588;7.248;2022-11-20T04:25:26;100528.81;;;-5.55;83.84
51359;BME280;37448;51.588;7.248;2022-11-20T04:26:27;100525.69;;;-5.49;84.25
51359;BME280;37448;51.588;7.248;2022-11-20T04:27:30;100520.94;;;-5.61;83.93
51359;BME280;37448;51.588;7.248;2022-11-20T04:28:30;100525.81;;;-5.66;83.65
51359;BME280;37448;51.588;7.248;2022-11-20T04:29:31;100523.06;;;-5.70;83.92
51359;BME280;37448;51.588;7.248;2022-11-20T04:30:31;100520.03;;;-5.83;84.06
51359;BME280;37448;51.588;7.248;2022-11-20T04:31:33;100530.72;;;-5.70;84.35
51359;BME280;37448;51.588;7.248;2022-11-20T04:32:34;100516.44;;;-5.67;84.45
51359;BME280;37448;51.588;7.248;2022-11-20T04:33:35;100524.09;;;-5.67;84.29
51359;BME280;37448;51.588;7.248;2022-11-20T04:34:36;100523.34;;;-5.64;84.28
51359;BME280;37448;51.588;7.248;2022-11-20T04:35:36;100525.22;;;-5.60;84.55
51359;BME280;37448;51.588;7.248;2022-11-20T04:36:37;100522.13;;;-5.72;83.74
51359;BME280;37448;51.588;7.248;2022-11-20T04:37:37;100530.31;;;-5.80;83.99
51359;BME280;37448;51.588;7.248;2022-11-20T04:38:38;100528.97;;;-5.71;84.55
51359;BME280;37448;51.588;7.248;2022-11-20T04:39:39;100531.72;;;-5.67;84.27
51359;BME280;37448;51.588;7.248;2022-11-20T04:40:39;100533.38;;;-5.67;84.46
51359;BME280;37448;51.588;7.248;2022-11-20T04:41:39;100535.16;;;-5.66;84.46
51359;BME280;37448;51.588;7.248;2022-11-20T04:42:39;100524.88;;;-5.68;84.47
51359;BME280;37448;51.588;7.248;2022-11-20T04:43:40;100532.59;;;-5.66;84.45
51359;BME280;37448;51.588;7.248;2022-11-20T04:44:40;100539.44;;;-5.65;84.87
51359;BME280;37448;51.588;7.248;2022-11-20T04:45:40;100537.69;;;-5.66;84.42
51359;BME280;37448;51.588;7.248;2022-11-20T04:46:41;100537.75;;;-5.65;84.54
51359;BME280;37448;51.588;7.248;2022-11-20T04:47:42;100547.13;;;-5.64;84.44
51359;BME280;37448;51.588;7.248;2022-11-20T04:48:42;100538.75;;;-5.61;84.54
51359;BME280;37448;51.588;7.248;2022-11-20T04:49:43;100534.47;;;-5.62;84.89
51359;BME280;37448;51.588;7.248;2022-11-20T04:50:43;100536.22;;;-5.61;84.47
51359;BME280;37448;51.588;7.248;2022-11-20T04:51:43;100532.84;;;-5.60;84.65
51359;BME280;37448;51.588;7.248;2022-11-20T04:52:44;100532.84;;;-5.60;84.64
51359;BME280;37448;51.588;7.248;2022-11-20T04:53:44;100534.59;;;-5.59;84.75
51359;BME280;37448;51.588;7.248;2022-11-20T04:54:44;100531.38;;;-5.55;85.03
51359;BME280;37448;51.588;7.248;2022-11-20T04:55:45;100536.59;;;-5.52;85.09
51359;BME280;37448;51.588;7.248;2022-11-20T04:56:48;100535.91;;;-5.48;85.16
51359;BME280;37448;51.588;7.248;2022-11-20T04:57:52;100536.19;;;-5.41;85.10
51359;BME280;37448;51.588;7.248;2022-11-20T04:58:52;100537.38;;;-5.33;85.08
51359;BME280;37448;51.588;7.248;2022-11-20T04:59:52;100536.00;;;-5.25;85.15
51359;BME280;37448;51.588;7.248;2022-11-20T05:00:53;100536.25;;;-5.19;85.00
51359;BME280;37448;51.588;7.248;2022-11-20T05:01:53;100535.25;;;-5.22;84.54
51359;BME280;37448;51.588;7.248;2022-11-20T05:02:53;100528.91;;;-5.11;85.28
51359;BME280;37448;51.588;7.248;2022-11-20T05:03:54;100536.63;;;-5.09;84.35
51359;BME280;37448;51.588;7.248;2022-11-20T05:04:54;100531.47;;;-5.11;84.86
51359;BME280;37448;51.588;7.248;2022-11-20T05:05:55;100535.81;;;-5.08;84.93
51359;BME280;37448;51.588;7.248;2022-11-20T05:06:55;100526.81;;;-5.00;85.53
51359;BME280;37448;51.588;7.248;2022-11-20T05:07:56;100531.28;;;-4.94;85.71
51359;BME280;37448;51.588;7.248;2022-11-20T05:08:58;100533.22;;;-4.88;85.89
51359;BME280;37448;51.588;7.248;2022-11-20T05:09:58;100532.56;;;-4.83;85.86
51359;BME280;37448;51.588;7.248;2022-11-20T05:11:10;100536.00;;;-4.82;85.51
51359;BME280;37448;51.588;7.248;2022-11-20T05:12:10;100535.09;;;-4.83;86.17
51359;BME280;37448;51.588;7.248;2022-11-20T05:13:11;100544.03;;;-4.94;84.69
51359;BME280;37448;51.588;7.248;2022-11-20T05:14:11;100544.44;;;-4.83;85.83
51359;BME280;37448;51.588;7.248;2022-11-20T05:15:11;100537.84;;;-4.78;86.43
51359;BME280;37448;51.588;7.248;2022-11-20T05:16:14;100539.78;;;-4.72;86.55
51359;BME280;37448;51.588;7.248;2022-11-20T05:17:15;100541.75;;;-4.65;86.34
51359;BME280;37448;51.588;7.248;2022-11-20T05:18:15;100538.47;;;-4.63;86.08
51359;BME280;37448;51.588;7.248;2022-11-20T05:19:15;100538.56;;;-4.59;85.76
51359;BME280;37448;51.588;7.248;2022-11-20T05:20:16;100544.69;;;-4.77;85.11
51359;BME280;37448;51.588;7.248;2022-11-20T05:21:16;100536.22;;;-4.76;85.09
51359;BME280;37448;51.588;7.248;2022-11-20T05:22:17;100538.28;;;-4.67;86.33
51359;BME280;37448;51.588;7.248;2022-11-20T05:23:17;100539.38;;;-4.61;86.64
51359;BME280;37448;51.588;7.248;2022-11-20T05:24:17;100534.06;;;-4.67;85.78
51359;BME280;37448;51.588;7.248;2022-11-20T05:25:18;100535.09;;;-4.62;86.27
51359;BME280;37448;51.588;7.248;2022-11-20T05:26:21;100541.00;;;-4.63;86.30
51359;BME280;37448;51.588;7.248;2022-11-20T05:27:22;100534.97;;;-4.65;85.89